CheckWX is a tool to help pilots better visualize weather data.  It is not intended as a substitute for an official pre-flight weather briefing.

14:50:36 UTC

EGTC METAR
Cranfield Airport
Cranfield, United Kingdom
Current

31 mins ago

EGTC 071420Z 22012KT 9999 BKN022 10/08 Q1011
Observed
Dec-7 @ 14:20 UTC
Wind
  • 220° at 12 KTS
Visibility
10,000+ meters
Flight Rules
MVFR
Cloud Levels
  • Broken at 2,200' AGL
Temperature
10°C / 50°F
Dewpoint
C / 46°F
Humidity
88%
Altimeter
29.85" Hg
Pressure
1010.92 hPa
Previous

1 hour ago

EGTC 071350Z 22012KT 9999 FEW020 SCT029 10/08 Q1011
Observed
Dec-7 @ 13:50 UTC
Wind
  • 220° at 12 KTS
Visibility
10,000+ meters
Flight Rules
VFR
Cloud Levels
  • Few at 2,000' AGL
  • Scattered at 2,900' AGL
Temperature
10°C / 50°F
Dewpoint
C / 46°F
Humidity
88%
Altimeter
29.85" Hg
Pressure
1010.92 hPa
Previous

2 hours ago

EGTC 071320Z 23013KT 9999 SCT029 10/07 Q1012
Observed
Dec-7 @ 13:20 UTC
Wind
  • 230° at 13 KTS
Visibility
10,000+ meters
Flight Rules
VFR
Cloud Levels
  • Scattered at 2,900' AGL
Temperature
10°C / 50°F
Dewpoint
C / 45°F
Humidity
82%
Altimeter
29.88" Hg
Pressure
1011.92 hPa